createdAt,value
2023-05-10T00:00:13.333Z,101109.34
2023-05-10T00:03:02.217Z,101105.91
2023-05-10T00:05:31.205Z,101100.75
2023-05-10T00:08:01.211Z,101095.66
2023-05-10T00:10:30.189Z,101094.19
2023-05-10T00:12:58.794Z,101091.75
2023-05-10T00:15:27.812Z,101085.63
2023-05-10T00:17:56.459Z,101086.56
2023-05-10T00:20:25.448Z,101080.53
2023-05-10T00:22:54.252Z,101086.09
2023-05-10T00:25:24.481Z,101079.13
2023-05-10T00:27:53.222Z,101077.38
2023-05-10T00:30:22.573Z,101082.63
2023-05-10T00:32:52.763Z,101071.41
2023-05-10T00:35:22.654Z,101072.34
2023-05-10T00:37:51.527Z,101068.97
2023-05-10T00:40:20.480Z,101072.56
2023-05-10T00:42:54.165Z,101068.34
2023-05-10T00:45:23.884Z,101069.41
2023-05-10T00:47:56.103Z,101072.88
2023-05-10T00:50:25.719Z,101074.56
2023-05-10T00:52:54.874Z,101067.53
2023-05-10T00:55:24.208Z,101060.75
2023-05-10T00:57:55.799Z,101066.63
2023-05-10T01:00:25.167Z,101065.16
2023-05-10T01:02:55.695Z,101065.25
2023-05-10T01:05:25.035Z,101068.84
2023-05-10T01:07:53.760Z,101053.03
2023-05-10T01:10:23.285Z,101061.91
2023-05-10T01:12:53.806Z,101056.59
2023-05-10T01:15:24.559Z,101057.44
2023-05-10T01:17:54.684Z,101065.53
2023-05-10T01:20:23.985Z,101056.75
2023-05-10T01:23:38.577Z,101058.88
2023-05-10T01:26:39.202Z,101046.69
2023-05-10T01:29:55.716Z,101049.47
2023-05-10T01:32:42.700Z,101050.41
2023-05-10T01:35:21.013Z,101058.47
2023-05-10T01:38:03.897Z,101055.94
2023-05-10T01:40:41.878Z,101055.16
2023-05-10T01:43:21.656Z,101051.00
2023-05-10T01:46:02.212Z,101051.13
2023-05-10T01:48:36.058Z,101047.06
2023-05-10T01:51:06.748Z,101046.34
2023-05-10T01:53:40.151Z,101041.88
2023-05-10T01:56:11.930Z,101032.63
2023-05-10T01:58:47.451Z,101044.84
2023-05-10T02:01:17.478Z,101036.16
2023-05-10T02:03:51.998Z,101041.44
2023-05-10T02:06:24.273Z,101040.63
2023-05-10T02:08:55.651Z,101029.25
2023-05-10T02:11:25.755Z,101038.13
2023-05-10T02:13:58.375Z,101035.59
2023-05-10T02:16:32.152Z,101040.97
2023-05-10T02:19:05.231Z,101041.34
2023-05-10T02:21:35.528Z,101029.22
2023-05-10T02:24:07.497Z,101025.69
2023-05-10T02:26:38.596Z,101028.22
2023-05-10T02:29:09.783Z,101035.09
2023-05-10T02:31:39.861Z,101033.47
2023-05-10T02:34:12.153Z,101028.38
2023-05-10T02:36:43.554Z,101023.34
2023-05-10T02:39:16.635Z,101032.22
2023-05-10T02:41:48.632Z,101033.31
2023-05-10T02:44:20.986Z,101032.66
2023-05-10T02:46:50.022Z,101026.63
2023-05-10T02:49:21.668Z,101033.00
2023-05-10T02:52:02.117Z,101027.91
2023-05-10T02:54:38.704Z,101027.13
2023-05-10T02:57:11.961Z,101027.00
2023-05-10T02:59:41.186Z,101027.22
2023-05-10T03:02:10.577Z,101039.47
2023-05-10T03:04:41.334Z,101033.50
2023-05-10T03:07:10.911Z,101037.03
2023-05-10T03:09:40.258Z,101033.72
2023-05-10T03:12:20.306Z,101033.72
2023-05-10T03:14:59.853Z,101035.50
2023-05-10T03:17:42.090Z,101036.31
2023-05-10T03:20:19.254Z,101031.22
2023-05-10T03:22:53.549Z,101032.28
2023-05-10T03:25:24.998Z,101034.97
2023-05-10T03:27:56.530Z,101032.41
2023-05-10T03:30:27.572Z,101026.25
2023-05-10T03:32:56.467Z,101026.47
2023-05-10T03:35:26.784Z,101030.00
2023-05-10T03:37:55.436Z,101024.69
2023-05-10T03:40:25.082Z,101029.03
2023-05-10T03:42:54.098Z,101027.97
2023-05-10T03:45:23.233Z,101026.19
2023-05-10T03:47:52.088Z,101033.06
2023-05-10T03:50:21.703Z,101032.00
2023-05-10T03:52:53.519Z,101030.09
2023-05-10T03:55:24.389Z,101028.41
2023-05-10T03:57:54.821Z,101029.88
2023-05-10T04:00:25.107Z,101024.59
2023-05-10T04:02:56.524Z,101026.19
2023-05-10T04:05:26.075Z,101027.91
2023-05-10T04:07:56.852Z,101029.25
2023-05-10T04:10:26.098Z,101038.59
2023-05-10T04:12:54.766Z,101040.19
2023-05-10T04:15:23.751Z,101038.41
2023-05-10T04:17:52.753Z,101033.75
2023-05-10T04:20:21.906Z,101035.22
2023-05-10T04:22:50.523Z,101039.50
2023-05-10T04:25:20.949Z,101041.53
2023-05-10T04:27:49.566Z,101035.38
2023-05-10T04:30:19.164Z,101036.00
2023-05-10T04:32:47.856Z,101045.41
2023-05-10T04:35:17.135Z,101036.25
2023-05-10T04:37:45.730Z,101036.81
2023-05-10T04:40:15.305Z,101039.22
2023-05-10T04:42:46.519Z,101036.06
2023-05-10T04:45:16.706Z,101041.78
2023-05-10T04:47:45.394Z,101044.03
2023-05-10T04:50:14.507Z,101042.94
2023-05-10T04:52:43.328Z,101046.94
2023-05-10T04:55:12.291Z,101037.63
2023-05-10T04:57:40.954Z,101040.72
2023-05-10T05:00:13.234Z,101039.16
2023-05-10T05:02:46.363Z,101040.16
2023-05-10T05:05:15.841Z,101038.59
2023-05-10T05:07:44.451Z,101047.59
2023-05-10T05:10:13.712Z,101042.72
2023-05-10T05:12:42.530Z,101039.53
2023-05-10T05:15:13.480Z,101041.34
2023-05-10T05:17:42.157Z,101034.84
2023-05-10T05:20:12.624Z,101045.63
2023-05-10T05:22:41.377Z,101038.31
2023-05-10T05:25:11.176Z,101045.00
2023-05-10T05:27:39.897Z,101047.63
2023-05-10T05:30:10.684Z,101036.28
2023-05-10T05:32:40.747Z,101042.28
2023-05-10T05:35:10.533Z,101027.38
2023-05-10T05:37:39.256Z,101038.22
2023-05-10T05:40:10.012Z,101037.84
2023-05-10T05:42:39.625Z,101035.72
2023-05-10T05:45:14.138Z,101043.56
2023-05-10T05:47:44.423Z,101041.63
2023-05-10T05:50:13.586Z,101040.78
2023-05-10T05:52:42.494Z,101041.75
2023-05-10T05:55:11.361Z,101039.97
2023-05-10T05:57:40.394Z,101037.94
2023-05-10T06:00:10.680Z,101036.25
2023-05-10T06:02:43.873Z,101038.13
2023-05-10T06:05:12.674Z,101040.84
2023-05-10T06:07:43.180Z,101038.09
2023-05-10T06:10:12.479Z,101036.97
2023-05-10T06:12:41.494Z,101042.44
2023-05-10T06:15:12.109Z,101055.56
2023-05-10T06:17:41.288Z,101043.88
2023-05-10T06:20:14.185Z,101042.28
2023-05-10T06:22:43.738Z,101046.69
2023-05-10T06:25:13.446Z,101044.44
2023-05-10T06:27:42.574Z,101040.47
2023-05-10T06:30:14.385Z,101040.78
2023-05-10T06:32:44.824Z,101042.63
2023-05-10T06:35:15.486Z,101043.75
2023-05-10T06:37:44.579Z,101046.00
2023-05-10T06:40:14.919Z,101040.19
2023-05-10T06:42:44.294Z,101042.25
2023-05-10T06:45:13.773Z,101038.88
2023-05-10T06:47:43.587Z,101036.78
2023-05-10T06:50:14.273Z,101046.78
2023-05-10T06:52:44.179Z,101041.22
2023-05-10T06:55:13.022Z,101035.47
2023-05-10T06:57:42.042Z,101044.63
2023-05-10T07:00:11.776Z,101024.06
2023-05-10T07:02:40.711Z,101038.41
2023-05-10T07:05:10.853Z,101034.63
2023-05-10T07:07:41.224Z,101025.56
2023-05-10T07:10:11.579Z,101031.31
2023-05-10T07:12:40.984Z,101028.13
2023-05-10T07:15:11.399Z,101029.38
2023-05-10T07:17:41.787Z,101032.63
2023-05-10T07:20:12.743Z,101027.81
2023-05-10T07:22:43.192Z,101025.34
2023-05-10T07:25:12.722Z,101026.31
2023-05-10T07:27:41.659Z,101026.47
2023-05-10T07:30:11.672Z,101028.47
2023-05-10T07:32:42.830Z,101038.00
2023-05-10T07:35:11.597Z,101044.91
2023-05-10T07:37:41.915Z,101036.16
2023-05-10T07:40:11.955Z,101040.41
2023-05-10T07:42:41.272Z,101041.34
2023-05-10T07:45:11.861Z,101033.38
2023-05-10T07:47:40.864Z,101035.22
2023-05-10T07:50:10.814Z,101030.50
2023-05-10T07:52:39.755Z,101020.06
2023-05-10T07:55:11.700Z,101026.47
2023-05-10T07:57:41.087Z,101015.38
2023-05-10T08:00:11.353Z,101024.59
2023-05-10T08:02:43.764Z,101021.38
2023-05-10T08:05:12.654Z,101019.44
2023-05-10T08:07:41.736Z,101013.78
2023-05-10T08:10:13.136Z,101018.75
2023-05-10T08:12:42.116Z,101022.84
2023-05-10T08:15:12.310Z,101018.09
2023-05-10T08:17:41.263Z,101020.19
2023-05-10T08:20:10.838Z,101024.00
2023-05-10T08:22:39.872Z,101008.97
2023-05-10T08:25:09.682Z,101019.28
2023-05-10T08:27:39.932Z,101003.91
2023-05-10T08:30:10.907Z,101014.66
2023-05-10T08:32:40.057Z,101012.84
2023-05-10T08:35:09.199Z,101008.94
2023-05-10T08:37:38.124Z,101007.97
2023-05-10T08:40:08.680Z,101015.59
2023-05-10T08:42:45.471Z,101017.13
2023-05-10T08:45:15.803Z,101019.50
2023-05-10T08:47:45.484Z,101023.31
2023-05-10T08:50:15.396Z,101026.06
2023-05-10T08:52:44.942Z,101019.41
2023-05-10T08:55:13.973Z,101024.22
2023-05-10T08:57:44.426Z,101019.44
2023-05-10T09:00:15.561Z,101018.50
2023-05-10T09:02:46.907Z,101013.59
2023-05-10T09:05:17.289Z,101011.84
2023-05-10T09:07:46.499Z,101004.78
2023-05-10T09:10:17.937Z,101005.41
2023-05-10T09:12:49.881Z,101003.44
2023-05-10T09:15:20.354Z,100998.56
2023-05-10T09:17:51.317Z,100991.84
2023-05-10T09:20:20.043Z,101006.44
2023-05-10T09:22:49.095Z,100990.16
2023-05-10T09:25:19.258Z,100997.69
2023-05-10T09:27:51.163Z,100988.97
2023-05-10T09:30:27.406Z,100991.00
2023-05-10T09:32:58.482Z,100992.13
2023-05-10T09:35:30.143Z,101001.41
2023-05-10T09:38:03.185Z,100984.25
2023-05-10T09:40:32.999Z,100993.28
2023-05-10T09:43:06.912Z,100997.44
2023-05-10T09:45:39.184Z,100993.50
2023-05-10T09:48:08.846Z,100981.25
2023-05-10T09:50:37.752Z,100987.34
2023-05-10T09:53:06.710Z,100987.06
2023-05-10T09:55:45.710Z,100979.03
2023-05-10T09:58:17.156Z,100987.34
2023-05-10T10:00:48.874Z,100985.84
2023-05-10T10:03:20.726Z,100980.19
2023-05-10T10:05:51.297Z,100975.19
2023-05-10T10:08:20.456Z,100980.34
2023-05-10T10:10:51.964Z,100971.69
2023-05-10T10:13:22.785Z,100965.31
2023-05-10T10:15:53.402Z,100957.97
2023-05-10T10:18:28.040Z,100959.63
2023-05-10T10:20:58.136Z,100953.25
2023-05-10T10:23:28.337Z,100954.69
2023-05-10T10:25:57.845Z,100951.59
2023-05-10T10:28:42.930Z,100951.47
2023-05-10T10:31:28.577Z,100944.56
2023-05-10T10:34:07.755Z,100951.81
2023-05-10T10:36:44.379Z,100944.28
2023-05-10T10:39:14.205Z,100941.88
2023-05-10T10:41:52.188Z,100957.31
2023-05-10T10:44:39.264Z,100938.72
2023-05-10T10:47:30.102Z,100937.03
2023-05-10T10:50:07.945Z,100933.50
2023-05-10T10:52:37.977Z,100934.03
2023-05-10T10:55:10.762Z,100938.47
2023-05-10T10:57:52.707Z,100935.69
2023-05-10T11:00:31.573Z,100935.16
2023-05-10T11:03:05.336Z,100921.19
2023-05-10T11:05:41.532Z,100939.50
2023-05-10T11:08:18.190Z,100930.97
2023-05-10T11:11:05.601Z,100922.63
2023-05-10T11:13:36.994Z,100927.81
2023-05-10T11:16:17.691Z,100925.16
2023-05-10T11:19:00.288Z,100927.16
2023-05-10T11:21:29.409Z,100920.19
2023-05-10T11:23:59.877Z,100918.44
2023-05-10T11:26:34.578Z,100916.94
2023-05-10T11:29:05.547Z,100915.59
2023-05-10T11:31:37.279Z,100905.53
2023-05-10T11:34:06.044Z,100906.22
2023-05-10T11:36:37.828Z,100909.41
2023-05-10T11:39:07.768Z,100914.09
2023-05-10T11:41:36.825Z,100890.78
2023-05-10T11:44:05.767Z,100903.06
2023-05-10T11:46:36.108Z,100908.91
2023-05-10T11:49:05.706Z,100901.03
2023-05-10T11:51:37.778Z,100902.25
2023-05-10T11:54:10.802Z,100899.63
2023-05-10T11:56:40.317Z,100906.84
2023-05-10T11:59:09.699Z,100906.03
2023-05-10T12:01:40.333Z,100906.22
2023-05-10T12:04:09.499Z,100898.69
2023-05-10T12:06:43.448Z,100891.44
2023-05-10T12:09:12.305Z,100891.72
2023-05-10T12:11:44.552Z,100889.34
2023-05-10T12:14:13.456Z,100882.00
2023-05-10T12:16:46.121Z,100899.41
2023-05-10T12:19:20.113Z,100901.75
2023-05-10T12:21:49.979Z,100890.94
2023-05-10T12:24:19.031Z,100891.34
2023-05-10T12:27:07.501Z,100888.91
2023-05-10T12:29:36.171Z,100896.66
2023-05-10T12:32:06.765Z,100886.56
2023-05-10T12:34:39.494Z,100887.66
2023-05-10T12:37:08.506Z,100881.09
2023-05-10T12:39:43.001Z,100874.41
2023-05-10T12:42:12.774Z,100872.56
2023-05-10T12:44:41.904Z,100883.50
2023-05-10T12:47:12.423Z,100878.31
2023-05-10T12:49:41.101Z,100881.53
2023-05-10T12:52:10.099Z,100877.00
2023-05-10T12:54:38.806Z,100877.59
2023-05-10T12:57:07.858Z,100874.28
2023-05-10T12:59:38.184Z,100874.72
2023-05-10T13:02:08.692Z,100876.00
2023-05-10T13:04:40.715Z,100868.69
2023-05-10T13:07:10.590Z,100865.19
2023-05-10T13:09:39.554Z,100861.25
2023-05-10T13:12:10.125Z,100860.53
2023-05-10T13:14:41.565Z,100873.59
2023-05-10T13:17:11.067Z,100865.41
2023-05-10T13:19:42.745Z,100862.94
2023-05-10T13:22:11.938Z,100861.63
2023-05-10T13:24:41.636Z,100860.53
2023-05-10T13:27:11.149Z,100868.59
2023-05-10T13:29:40.032Z,100865.19
2023-05-10T13:32:09.901Z,100864.28
2023-05-10T13:34:41.076Z,100845.31
2023-05-10T13:37:11.123Z,100857.91
2023-05-10T13:39:40.053Z,100847.19
2023-05-10T13:42:09.431Z,100859.78
2023-05-10T13:44:39.797Z,100846.69
2023-05-10T13:47:09.033Z,100849.44
2023-05-10T13:49:37.933Z,100857.38
2023-05-10T13:52:08.933Z,100853.50
2023-05-10T13:54:39.270Z,100849.19
2023-05-10T13:57:08.854Z,100843.66
2023-05-10T13:59:38.461Z,100853.50
2023-05-10T14:02:08.473Z,100837.34
2023-05-10T14:04:37.522Z,100832.47
2023-05-10T14:07:10.220Z,100832.72
2023-05-10T14:09:39.839Z,100842.09
2023-05-10T14:12:09.176Z,100829.91
2023-05-10T14:14:38.068Z,100827.41
2023-05-10T14:17:09.555Z,100826.50
2023-05-10T14:19:40.558Z,100827.22
2023-05-10T14:22:11.532Z,100830.03
2023-05-10T14:24:40.756Z,100833.47
2023-05-10T14:27:10.031Z,100827.75
2023-05-10T14:29:38.882Z,100831.13
2023-05-10T14:32:08.335Z,100825.63
2023-05-10T14:34:37.300Z,100824.03
2023-05-10T14:37:06.825Z,100829.91
2023-05-10T14:39:37.061Z,100821.56
2023-05-10T14:42:06.958Z,100821.28
2023-05-10T14:44:36.037Z,100821.41
2023-05-10T14:47:05.373Z,100814.50
2023-05-10T14:49:34.262Z,100818.22
2023-05-10T14:52:04.181Z,100817.31
2023-05-10T14:54:34.492Z,100833.41
2023-05-10T14:57:05.255Z,100823.56
2023-05-10T14:59:34.134Z,100821.28
2023-05-10T15:02:04.219Z,100827.75
2023-05-10T15:04:33.693Z,100817.91
2023-05-10T15:07:03.747Z,100810.47
2023-05-10T15:09:32.571Z,100819.09
2023-05-10T15:12:01.712Z,100812.34
2023-05-10T15:14:32.508Z,100815.41
2023-05-10T15:17:01.955Z,100815.94
2023-05-10T15:19:30.870Z,100820.84
2023-05-10T15:22:00.226Z,100816.09
2023-05-10T15:24:29.165Z,100821.00
2023-05-10T15:26:58.972Z,100808.13
2023-05-10T15:29:27.793Z,100813.72
2023-05-10T15:31:58.385Z,100807.53
2023-05-10T15:34:28.218Z,100813.28
2023-05-10T15:36:58.317Z,100804.06
2023-05-10T15:39:27.231Z,100800.38
2023-05-10T15:41:56.318Z,100807.28
2023-05-10T15:44:25.728Z,100806.50
2023-05-10T15:46:54.916Z,100802.25
2023-05-10T15:49:25.375Z,100803.25
2023-05-10T15:51:55.125Z,100800.31
2023-05-10T15:54:25.148Z,100804.50
2023-05-10T15:56:55.223Z,100802.56
2023-05-10T15:59:24.104Z,100807.97
2023-05-10T16:01:54.867Z,100816.13
2023-05-10T16:04:25.146Z,100807.13
2023-05-10T16:06:54.406Z,100806.09
2023-05-10T16:09:24.074Z,100802.59
2023-05-10T16:11:53.405Z,100799.94
2023-05-10T16:14:25.364Z,100798.63
2023-05-10T16:16:54.639Z,100804.84
2023-05-10T16:19:29.130Z,100806.25
2023-05-10T16:22:00.451Z,100813.16
2023-05-10T16:24:29.604Z,100811.16
2023-05-10T16:26:58.762Z,100803.75
2023-05-10T16:29:27.873Z,100803.59
2023-05-10T16:31:57.151Z,100809.63
2023-05-10T16:34:27.489Z,100812.06
2023-05-10T16:36:57.208Z,100813.91
2023-05-10T16:39:26.175Z,100814.88
2023-05-10T16:41:55.458Z,100814.72
2023-05-10T16:44:25.961Z,100813.06
2023-05-10T16:46:56.205Z,100824.00
2023-05-10T16:49:27.432Z,100818.94
2023-05-10T16:51:57.642Z,100816.81
2023-05-10T16:54:27.045Z,100813.75
2023-05-10T16:56:57.620Z,100821.59
2023-05-10T16:59:26.829Z,100830.81
2023-05-10T17:01:56.591Z,100817.38
2023-05-10T17:04:27.654Z,100823.69
2023-05-10T17:06:56.831Z,100837.78
2023-05-10T17:09:25.900Z,100836.25
2023-05-10T17:11:55.201Z,100833.75
2023-05-10T17:14:24.845Z,100833.81
2023-05-10T17:16:55.616Z,100837.47
2023-05-10T17:19:26.460Z,100837.88
2023-05-10T17:21:55.989Z,100839.53
2023-05-10T17:24:24.915Z,100839.53
2023-05-10T17:26:54.704Z,100837.00
2023-05-10T17:29:23.833Z,100839.34
2023-05-10T17:31:53.827Z,100845.91
2023-05-10T17:34:28.710Z,100844.19
2023-05-10T17:36:59.719Z,100840.81
2023-05-10T17:39:29.878Z,100840.94
2023-05-10T17:41:59.232Z,100847.19
2023-05-10T17:44:28.192Z,100851.41
2023-05-10T17:46:58.473Z,100851.25
2023-05-10T17:49:29.231Z,100853.72
2023-05-10T17:52:00.774Z,100859.91
2023-05-10T17:54:30.553Z,100864.13
2023-05-10T17:57:03.156Z,100863.94
2023-05-10T17:59:32.295Z,100858.94
2023-05-10T18:02:03.711Z,100863.53
2023-05-10T18:04:33.854Z,100864.75
2023-05-10T18:07:04.817Z,100867.53
2023-05-10T18:09:34.213Z,100864.66
2023-05-10T18:12:04.670Z,100873.03
2023-05-10T18:14:40.678Z,100871.88
2023-05-10T18:17:11.015Z,100875.13
2023-05-10T18:19:40.904Z,100876.50
2023-05-10T18:22:12.260Z,100880.47
2023-05-10T18:24:41.252Z,100881.34
2023-05-10T18:27:11.774Z,100885.38
2023-05-10T18:29:41.105Z,100885.72
2023-05-10T18:32:10.437Z,100887.19
2023-05-10T18:34:39.388Z,100895.38
2023-05-10T18:37:10.882Z,100894.09
2023-05-10T18:39:42.875Z,100898.31
2023-05-10T18:42:12.593Z,100898.78
2023-05-10T18:44:44.036Z,100898.41
2023-05-10T18:47:14.163Z,100905.75
2023-05-10T18:49:46.398Z,100915.97
2023-05-10T18:52:20.281Z,100911.16
2023-05-10T18:54:50.661Z,100908.16
2023-05-10T18:57:22.105Z,100914.88
2023-05-10T18:59:52.433Z,100912.84
2023-05-10T19:02:26.829Z,100910.91
2023-05-10T19:05:00.521Z,100912.34
2023-05-10T19:07:33.843Z,100914.63
2023-05-10T19:10:03.853Z,100913.41
2023-05-10T19:12:33.174Z,100914.38
2023-05-10T19:15:02.219Z,100908.34
2023-05-10T19:17:32.516Z,100911.47
2023-05-10T19:20:02.025Z,100914.59
2023-05-10T19:22:47.207Z,100918.41
2023-05-10T19:25:19.065Z,100915.25
2023-05-10T19:27:49.126Z,100916.47
2023-05-10T19:30:18.123Z,100907.19
2023-05-10T19:32:47.946Z,100916.31
2023-05-10T19:35:17.338Z,100920.75
2023-05-10T19:37:47.872Z,100914.97
2023-05-10T19:40:17.472Z,100919.03
2023-05-10T19:42:46.747Z,100918.06
2023-05-10T19:45:16.642Z,100916.28
2023-05-10T19:47:46.005Z,100918.28
2023-05-10T19:50:18.326Z,100919.78
2023-05-10T19:52:49.500Z,100914.59
2023-05-10T19:55:30.554Z,100917.38
2023-05-10T19:58:01.505Z,100921.53
2023-05-10T20:00:30.512Z,100926.91
2023-05-10T20:02:59.821Z,100923.91
2023-05-10T20:05:28.648Z,100927.72
2023-05-10T20:07:58.992Z,100933.22
2023-05-10T20:10:27.849Z,100926.25
2023-05-10T20:12:58.730Z,100931.75
2023-05-10T20:15:27.923Z,100935.34
2023-05-10T20:17:57.075Z,100924.16
2023-05-10T20:20:25.930Z,100928.94
2023-05-10T20:22:54.945Z,100932.25
2023-05-10T20:25:25.188Z,100932.44
2023-05-10T20:27:54.148Z,100938.06
2023-05-10T20:30:23.057Z,100930.22
2023-05-10T20:32:52.057Z,100932.03
2023-05-10T20:35:20.888Z,100933.66
2023-05-10T20:37:49.894Z,100932.91
2023-05-10T20:40:18.780Z,100934.06
2023-05-10T20:42:49.942Z,100929.97
2023-05-10T20:45:18.640Z,100929.34
2023-05-10T20:47:47.645Z,100939.06
2023-05-10T20:50:16.522Z,100941.19
2023-05-10T20:52:45.702Z,100947.81
2023-05-10T20:55:14.490Z,100950.81
2023-05-10T20:57:43.410Z,100945.94
2023-05-10T21:00:15.485Z,100955.44
2023-05-10T21:02:46.943Z,100952.28
2023-05-10T21:05:15.834Z,100954.59
2023-05-10T21:07:44.962Z,100954.91
2023-05-10T21:10:13.630Z,100958.47
2023-05-10T21:12:42.732Z,100958.13
2023-05-10T21:15:13.389Z,100959.91
2023-05-10T21:17:42.346Z,100952.22
2023-05-10T21:20:12.969Z,100963.09
2023-05-10T21:22:41.857Z,100963.47
2023-05-10T21:25:11.399Z,100963.69
2023-05-10T21:27:40.912Z,100965.13
2023-05-10T21:30:13.151Z,100968.09
2023-05-10T21:32:42.548Z,100964.06
2023-05-10T21:35:11.615Z,100958.56
2023-05-10T21:37:40.531Z,100973.75
2023-05-10T21:40:10.575Z,100971.09
2023-05-10T21:42:39.472Z,100973.41
2023-05-10T21:45:09.331Z,100976.22
2023-05-10T21:47:39.678Z,100971.13
2023-05-10T21:50:11.221Z,100969.56
2023-05-10T21:52:40.581Z,100974.19
2023-05-10T21:55:10.872Z,100974.56
2023-05-10T21:57:39.797Z,100973.84
2023-05-10T22:00:11.906Z,100986.25
2023-05-10T22:02:43.012Z,100984.75
2023-05-10T22:05:11.841Z,100982.41
2023-05-10T22:07:40.819Z,100984.38
2023-05-10T22:10:10.815Z,100983.72
2023-05-10T22:12:39.753Z,100980.25
2023-05-10T22:15:10.965Z,100986.09
2023-05-10T22:17:42.341Z,100985.25
2023-05-10T22:20:11.675Z,100980.25
2023-05-10T22:22:40.692Z,100986.78
2023-05-10T22:25:09.997Z,100987.72
2023-05-10T22:27:39.037Z,100989.41
2023-05-10T22:30:09.678Z,100988.09
2023-05-10T22:32:38.627Z,100992.72
2023-05-10T22:35:10.177Z,100991.16
2023-05-10T22:37:39.142Z,100991.47
2023-05-10T22:40:09.805Z,100995.03
2023-05-10T22:42:38.810Z,100998.81
2023-05-10T22:45:09.525Z,101002.63
2023-05-10T22:47:38.698Z,100997.00
2023-05-10T22:50:10.667Z,101002.53
2023-05-10T22:52:39.950Z,101004.69
2023-05-10T22:55:09.509Z,101001.41
2023-05-10T22:57:38.935Z,101003.03
2023-05-10T23:00:09.846Z,100997.38
2023-05-10T23:02:38.932Z,101007.16
2023-05-10T23:05:10.857Z,101007.97
2023-05-10T23:07:39.847Z,101015.03
2023-05-10T23:10:09.319Z,101011.84
2023-05-10T23:12:38.286Z,101016.53
2023-05-10T23:15:08.530Z,101013.22
2023-05-10T23:17:37.532Z,101013.41
2023-05-10T23:20:09.231Z,101016.13
2023-05-10T23:22:38.287Z,101012.91
2023-05-10T23:25:08.545Z,101003.31
2023-05-10T23:27:37.467Z,101007.91
2023-05-10T23:30:07.775Z,101015.16
2023-05-10T23:32:36.710Z,101008.38
2023-05-10T23:35:06.330Z,101006.75
2023-05-10T23:37:37.120Z,101009.56
2023-05-10T23:40:07.237Z,101011.44
2023-05-10T23:42:36.227Z,101015.03
2023-05-10T23:45:05.755Z,101009.84
2023-05-10T23:47:34.751Z,101010.03
2023-05-10T23:50:05.300Z,101012.81
2023-05-10T23:52:43.802Z,101005.97
2023-05-10T23:55:12.987Z,101012.06
2023-05-10T23:57:41.939Z,101001.72
